sensor_id;sensor_type;location;lat;lon;timestamp;P1;durP1;ratioP1;P2;durP2;ratioP2
2858;SDS011;1437;53.250;10.406;2023-03-11T00:01:00;13.40;;;9.33;;
2858;SDS011;1437;53.250;10.406;2023-03-11T00:03:27;12.00;;;6.90;;
2858;SDS011;1437;53.250;10.406;2023-03-11T00:05:59;11.20;;;7.87;;
2858;SDS011;1437;53.250;10.406;2023-03-11T00:08:27;11.90;;;9.33;;
2858;SDS011;1437;53.250;10.406;2023-03-11T00:10:59;12.93;;;8.00;;
2858;SDS011;1437;53.250;10.406;2023-03-11T00:13:28;17.07;;;9.30;;
2858;SDS011;1437;53.250;10.406;2023-03-11T00:16:01;11.00;;;8.00;;
2858;SDS011;1437;53.250;10.406;2023-03-11T00:18:31;14.00;;;10.10;;
2858;SDS011;1437;53.250;10.406;2023-03-11T00:20:59;15.20;;;10.60;;
2858;SDS011;1437;53.250;10.406;2023-03-11T00:23:27;16.63;;;11.70;;
2858;SDS011;1437;53.250;10.406;2023-03-11T00:25:55;12.37;;;8.40;;
2858;SDS011;1437;53.250;10.406;2023-03-11T00:28:26;11.57;;;9.00;;
2858;SDS011;1437;53.250;10.406;2023-03-11T00:30:54;17.60;;;12.03;;
2858;SDS011;1437;53.250;10.406;2023-03-11T00:33:24;15.47;;;10.53;;
2858;SDS011;1437;53.250;10.406;2023-03-11T00:35:55;15.50;;;10.07;;
2858;SDS011;1437;53.250;10.406;2023-03-11T00:38:23;19.03;;;13.03;;
2858;SDS011;1437;53.250;10.406;2023-03-11T00:40:54;18.53;;;11.30;;
2858;SDS011;1437;53.250;10.406;2023-03-11T00:43:24;14.47;;;8.90;;
2858;SDS011;1437;53.250;10.406;2023-03-11T00:45:53;12.17;;;7.90;;
2858;SDS011;1437;53.250;10.406;2023-03-11T00:48:23;24.13;;;13.13;;
2858;SDS011;1437;53.250;10.406;2023-03-11T00:50:51;16.67;;;11.50;;
2858;SDS011;1437;53.250;10.406;2023-03-11T00:53:19;18.00;;;11.27;;
2858;SDS011;1437;53.250;10.406;2023-03-11T00:55:46;20.30;;;12.73;;
2858;SDS011;1437;53.250;10.406;2023-03-11T00:58:14;18.23;;;12.40;;
2858;SDS011;1437;53.250;10.406;2023-03-11T01:00:43;22.20;;;13.33;;
2858;SDS011;1437;53.250;10.406;2023-03-11T01:03:12;31.50;;;19.73;;
2858;SDS011;1437;53.250;10.406;2023-03-11T01:05:41;27.20;;;16.03;;
2858;SDS011;1437;53.250;10.406;2023-03-11T01:08:08;27.87;;;15.23;;
2858;SDS011;1437;53.250;10.406;2023-03-11T01:10:37;23.47;;;13.70;;
2858;SDS011;1437;53.250;10.406;2023-03-11T01:13:05;25.33;;;16.83;;
2858;SDS011;1437;53.250;10.406;2023-03-11T01:15:37;32.33;;;17.53;;
2858;SDS011;1437;53.250;10.406;2023-03-11T01:18:05;25.63;;;15.30;;
2858;SDS011;1437;53.250;10.406;2023-03-11T01:20:33;25.77;;;13.67;;
2858;SDS011;1437;53.250;10.406;2023-03-11T01:23:02;26.60;;;17.23;;
2858;SDS011;1437;53.250;10.406;2023-03-11T01:25:30;20.70;;;12.73;;
2858;SDS011;1437;53.250;10.406;2023-03-11T01:27:58;27.83;;;15.60;;
2858;SDS011;1437;53.250;10.406;2023-03-11T01:30:26;29.83;;;18.17;;
2858;SDS011;1437;53.250;10.406;2023-03-11T01:32:55;24.20;;;13.20;;
2858;SDS011;1437;53.250;10.406;2023-03-11T01:35:25;23.17;;;12.80;;
2858;SDS011;1437;53.250;10.406;2023-03-11T01:37:54;25.20;;;16.20;;
2858;SDS011;1437;53.250;10.406;2023-03-11T01:40:25;20.57;;;12.30;;
2858;SDS011;1437;53.250;10.406;2023-03-11T01:42:56;19.37;;;12.97;;
2858;SDS011;1437;53.250;10.406;2023-03-11T01:45:28;25.03;;;13.70;;
2858;SDS011;1437;53.250;10.406;2023-03-11T01:47:57;25.93;;;16.80;;
2858;SDS011;1437;53.250;10.406;2023-03-11T01:50:25;26.80;;;12.90;;
2858;SDS011;1437;53.250;10.406;2023-03-11T01:52:53;28.53;;;17.87;;
2858;SDS011;1437;53.250;10.406;2023-03-11T01:55:21;27.63;;;17.60;;
2858;SDS011;1437;53.250;10.406;2023-03-11T01:57:50;23.10;;;14.17;;
2858;SDS011;1437;53.250;10.406;2023-03-11T02:00:18;21.43;;;15.03;;
2858;SDS011;1437;53.250;10.406;2023-03-11T02:02:53;18.00;;;10.93;;
2858;SDS011;1437;53.250;10.406;2023-03-11T02:05:22;19.97;;;11.00;;
2858;SDS011;1437;53.250;10.406;2023-03-11T02:07:50;22.20;;;14.63;;
2858;SDS011;1437;53.250;10.406;2023-03-11T02:10:19;22.30;;;15.10;;
2858;SDS011;1437;53.250;10.406;2023-03-11T02:12:47;26.37;;;16.10;;
2858;SDS011;1437;53.250;10.406;2023-03-11T02:15:17;24.20;;;14.77;;
2858;SDS011;1437;53.250;10.406;2023-03-11T02:17:45;22.03;;;15.90;;
2858;SDS011;1437;53.250;10.406;2023-03-11T02:20:20;18.10;;;11.93;;
2858;SDS011;1437;53.250;10.406;2023-03-11T02:22:50;28.40;;;16.20;;
2858;SDS011;1437;53.250;10.406;2023-03-11T02:25:23;23.67;;;16.03;;
2858;SDS011;1437;53.250;10.406;2023-03-11T02:27:57;26.43;;;16.00;;
2858;SDS011;1437;53.250;10.406;2023-03-11T02:30:26;27.83;;;16.73;;
2858;SDS011;1437;53.250;10.406;2023-03-11T02:32:55;22.90;;;13.80;;
2858;SDS011;1437;53.250;10.406;2023-03-11T02:35:22;19.77;;;12.27;;
2858;SDS011;1437;53.250;10.406;2023-03-11T02:37:51;20.43;;;12.70;;
2858;SDS011;1437;53.250;10.406;2023-03-11T02:40:32;32.30;;;18.00;;
2858;SDS011;1437;53.250;10.406;2023-03-11T02:43:06;23.17;;;14.63;;
2858;SDS011;1437;53.250;10.406;2023-03-11T02:45:37;21.43;;;14.00;;
2858;SDS011;1437;53.250;10.406;2023-03-11T02:48:06;15.70;;;10.87;;
2858;SDS011;1437;53.250;10.406;2023-03-11T02:50:35;24.43;;;11.83;;
2858;SDS011;1437;53.250;10.406;2023-03-11T02:53:03;20.27;;;13.47;;
2858;SDS011;1437;53.250;10.406;2023-03-11T02:55:32;25.13;;;14.20;;
2858;SDS011;1437;53.250;10.406;2023-03-11T02:58:00;15.47;;;10.13;;
2858;SDS011;1437;53.250;10.406;2023-03-11T03:00:30;17.87;;;11.97;;
2858;SDS011;1437;53.250;10.406;2023-03-11T03:02:59;23.37;;;14.47;;
2858;SDS011;1437;53.250;10.406;2023-03-11T03:05:27;27.93;;;14.37;;
2858;SDS011;1437;53.250;10.406;2023-03-11T03:07:56;22.97;;;14.47;;
2858;SDS011;1437;53.250;10.406;2023-03-11T03:10:23;24.77;;;14.87;;
2858;SDS011;1437;53.250;10.406;2023-03-11T03:12:51;23.67;;;16.50;;
2858;SDS011;1437;53.250;10.406;2023-03-11T03:15:19;24.30;;;15.07;;
2858;SDS011;1437;53.250;10.406;2023-03-11T03:17:48;24.17;;;14.30;;
2858;SDS011;1437;53.250;10.406;2023-03-11T03:20:16;18.83;;;13.20;;
2858;SDS011;1437;53.250;10.406;2023-03-11T03:22:47;24.40;;;12.30;;
2858;SDS011;1437;53.250;10.406;2023-03-11T03:25:15;18.03;;;10.97;;
2858;SDS011;1437;53.250;10.406;2023-03-11T03:27:43;19.73;;;12.13;;
2858;SDS011;1437;53.250;10.406;2023-03-11T03:30:11;25.20;;;14.93;;
2858;SDS011;1437;53.250;10.406;2023-03-11T03:32:39;22.83;;;15.13;;
2858;SDS011;1437;53.250;10.406;2023-03-11T03:35:09;24.13;;;14.83;;
2858;SDS011;1437;53.250;10.406;2023-03-11T03:37:37;28.57;;;15.57;;
2858;SDS011;1437;53.250;10.406;2023-03-11T03:40:05;22.60;;;15.63;;
2858;SDS011;1437;53.250;10.406;2023-03-11T03:42:34;25.67;;;15.80;;
2858;SDS011;1437;53.250;10.406;2023-03-11T03:45:02;23.90;;;13.87;;
2858;SDS011;1437;53.250;10.406;2023-03-11T03:47:30;24.30;;;15.50;;
2858;SDS011;1437;53.250;10.406;2023-03-11T03:49:58;24.77;;;15.90;;
2858;SDS011;1437;53.250;10.406;2023-03-11T03:52:28;21.77;;;13.43;;
2858;SDS011;1437;53.250;10.406;2023-03-11T03:54:58;20.17;;;11.73;;
2858;SDS011;1437;53.250;10.406;2023-03-11T03:57:32;24.50;;;15.47;;
2858;SDS011;1437;53.250;10.406;2023-03-11T04:00:00;14.17;;;10.87;;
2858;SDS011;1437;53.250;10.406;2023-03-11T04:02:35;18.30;;;12.63;;
2858;SDS011;1437;53.250;10.406;2023-03-11T04:05:16;20.67;;;12.83;;
2858;SDS011;1437;53.250;10.406;2023-03-11T04:07:47;16.00;;;10.50;;
2858;SDS011;1437;53.250;10.406;2023-03-11T04:10:24;21.60;;;12.10;;
2858;SDS011;1437;53.250;10.406;2023-03-11T04:12:57;21.17;;;12.93;;
2858;SDS011;1437;53.250;10.406;2023-03-11T04:15:29;28.40;;;15.57;;
2858;SDS011;1437;53.250;10.406;2023-03-11T04:17:57;22.20;;;14.70;;
2858;SDS011;1437;53.250;10.406;2023-03-11T04:20:27;16.20;;;10.10;;
2858;SDS011;1437;53.250;10.406;2023-03-11T04:22:57;28.23;;;14.70;;
2858;SDS011;1437;53.250;10.406;2023-03-11T04:25:24;25.90;;;14.60;;
2858;SDS011;1437;53.250;10.406;2023-03-11T04:27:52;24.40;;;11.77;;
2858;SDS011;1437;53.250;10.406;2023-03-11T04:30:20;15.03;;;9.77;;
2858;SDS011;1437;53.250;10.406;2023-03-11T04:32:50;24.33;;;14.40;;
2858;SDS011;1437;53.250;10.406;2023-03-11T04:35:19;26.10;;;16.07;;
2858;SDS011;1437;53.250;10.406;2023-03-11T04:37:55;22.70;;;13.90;;
2858;SDS011;1437;53.250;10.406;2023-03-11T04:40:25;23.90;;;12.47;;
2858;SDS011;1437;53.250;10.406;2023-03-11T04:42:55;21.63;;;14.60;;
2858;SDS011;1437;53.250;10.406;2023-03-11T04:45:22;23.80;;;15.30;;
2858;SDS011;1437;53.250;10.406;2023-03-11T04:47:51;19.50;;;12.07;;
2858;SDS011;1437;53.250;10.406;2023-03-11T04:50:19;17.90;;;11.10;;
2858;SDS011;1437;53.250;10.406;2023-03-11T04:52:47;27.27;;;14.90;;
2858;SDS011;1437;53.250;10.406;2023-03-11T04:55:15;23.90;;;15.40;;
2858;SDS011;1437;53.250;10.406;2023-03-11T04:57:44;26.33;;;16.50;;
2858;SDS011;1437;53.250;10.406;2023-03-11T05:00:12;19.60;;;11.47;;
2858;SDS011;1437;53.250;10.406;2023-03-11T05:02:41;23.53;;;14.60;;
2858;SDS011;1437;53.250;10.406;2023-03-11T05:05:11;20.80;;;12.83;;
2858;SDS011;1437;53.250;10.406;2023-03-11T05:07:39;16.00;;;10.17;;
2858;SDS011;1437;53.250;10.406;2023-03-11T05:10:15;19.83;;;12.00;;
2858;SDS011;1437;53.250;10.406;2023-03-11T05:12:48;18.07;;;12.50;;
2858;SDS011;1437;53.250;10.406;2023-03-11T05:15:18;23.63;;;14.43;;
2858;SDS011;1437;53.250;10.406;2023-03-11T05:17:46;18.30;;;11.40;;
2858;SDS011;1437;53.250;10.406;2023-03-11T05:20:14;21.30;;;11.90;;
2858;SDS011;1437;53.250;10.406;2023-03-11T05:22:45;18.47;;;10.67;;
2858;SDS011;1437;53.250;10.406;2023-03-11T05:25:15;15.60;;;8.50;;
2858;SDS011;1437;53.250;10.406;2023-03-11T05:27:43;18.30;;;12.90;;
2858;SDS011;1437;53.250;10.406;2023-03-11T05:30:17;21.97;;;12.67;;
2858;SDS011;1437;53.250;10.406;2023-03-11T05:32:48;19.90;;;11.70;;
2858;SDS011;1437;53.250;10.406;2023-03-11T05:35:18;16.80;;;11.27;;
2858;SDS011;1437;53.250;10.406;2023-03-11T05:37:49;15.93;;;10.30;;
2858;SDS011;1437;53.250;10.406;2023-03-11T05:40:19;21.03;;;10.60;;
2858;SDS011;1437;53.250;10.406;2023-03-11T05:42:49;17.10;;;11.73;;
2858;SDS011;1437;53.250;10.406;2023-03-11T05:45:21;18.43;;;11.67;;
2858;SDS011;1437;53.250;10.406;2023-03-11T05:47:51;18.77;;;11.07;;
2858;SDS011;1437;53.250;10.406;2023-03-11T05:50:20;16.83;;;10.43;;
2858;SDS011;1437;53.250;10.406;2023-03-11T05:52:49;18.67;;;11.93;;
2858;SDS011;1437;53.250;10.406;2023-03-11T05:55:16;20.03;;;12.30;;
2858;SDS011;1437;53.250;10.406;2023-03-11T05:57:49;18.33;;;12.00;;
2858;SDS011;1437;53.250;10.406;2023-03-11T06:00:28;14.60;;;9.43;;
2858;SDS011;1437;53.250;10.406;2023-03-11T06:03:01;15.60;;;9.97;;
2858;SDS011;1437;53.250;10.406;2023-03-11T06:05:31;19.77;;;10.90;;
2858;SDS011;1437;53.250;10.406;2023-03-11T06:08:04;20.57;;;12.23;;
2858;SDS011;1437;53.250;10.406;2023-03-11T06:10:35;18.57;;;11.80;;
2858;SDS011;1437;53.250;10.406;2023-03-11T06:13:05;17.97;;;11.57;;
2858;SDS011;1437;53.250;10.406;2023-03-11T06:15:38;19.00;;;11.70;;
2858;SDS011;1437;53.250;10.406;2023-03-11T06:18:11;21.80;;;11.60;;
2858;SDS011;1437;53.250;10.406;2023-03-11T06:20:40;16.50;;;11.27;;
2858;SDS011;1437;53.250;10.406;2023-03-11T06:26:03;20.30;;;11.67;;
2858;SDS011;1437;53.250;10.406;2023-03-11T06:28:34;18.77;;;12.40;;
2858;SDS011;1437;53.250;10.406;2023-03-11T06:31:09;16.23;;;10.90;;
2858;SDS011;1437;53.250;10.406;2023-03-11T06:33:39;16.30;;;7.30;;
2858;SDS011;1437;53.250;10.406;2023-03-11T06:36:09;17.67;;;11.30;;
2858;SDS011;1437;53.250;10.406;2023-03-11T06:38:38;21.90;;;11.43;;
2858;SDS011;1437;53.250;10.406;2023-03-11T06:41:07;15.90;;;10.40;;
2858;SDS011;1437;53.250;10.406;2023-03-11T06:43:37;19.60;;;12.73;;
2858;SDS011;1437;53.250;10.406;2023-03-11T06:46:12;18.93;;;11.87;;
2858;SDS011;1437;53.250;10.406;2023-03-11T06:48:47;19.00;;;11.60;;
2858;SDS011;1437;53.250;10.406;2023-03-11T06:51:16;16.40;;;10.47;;
2858;SDS011;1437;53.250;10.406;2023-03-11T06:53:47;16.77;;;10.43;;
2858;SDS011;1437;53.250;10.406;2023-03-11T06:56:19;16.40;;;9.80;;
2858;SDS011;1437;53.250;10.406;2023-03-11T06:58:48;19.17;;;12.17;;
2858;SDS011;1437;53.250;10.406;2023-03-11T07:01:21;19.03;;;11.90;;
2858;SDS011;1437;53.250;10.406;2023-03-11T07:03:55;23.90;;;11.87;;
2858;SDS011;1437;53.250;10.406;2023-03-11T07:06:25;24.00;;;12.80;;
2858;SDS011;1437;53.250;10.406;2023-03-11T07:08:55;22.53;;;13.60;;
2858;SDS011;1437;53.250;10.406;2023-03-11T07:11:28;19.70;;;13.23;;
2858;SDS011;1437;53.250;10.406;2023-03-11T07:13:57;25.90;;;14.60;;
2858;SDS011;1437;53.250;10.406;2023-03-11T07:16:38;22.40;;;12.43;;
2858;SDS011;1437;53.250;10.406;2023-03-11T07:19:09;21.00;;;12.47;;
2858;SDS011;1437;53.250;10.406;2023-03-11T07:21:38;21.93;;;13.03;;
2858;SDS011;1437;53.250;10.406;2023-03-11T07:24:09;19.97;;;13.87;;
2858;SDS011;1437;53.250;10.406;2023-03-11T07:26:46;21.50;;;11.97;;
2858;SDS011;1437;53.250;10.406;2023-03-11T07:29:18;18.17;;;10.90;;
2858;SDS011;1437;53.250;10.406;2023-03-11T07:31:51;14.70;;;10.20;;
2858;SDS011;1437;53.250;10.406;2023-03-11T07:34:19;17.30;;;11.67;;
2858;SDS011;1437;53.250;10.406;2023-03-11T07:36:47;25.23;;;13.57;;
2858;SDS011;1437;53.250;10.406;2023-03-11T07:39:16;19.27;;;11.70;;
2858;SDS011;1437;53.250;10.406;2023-03-11T07:41:50;20.73;;;13.10;;
2858;SDS011;1437;53.250;10.406;2023-03-11T07:44:18;18.10;;;11.90;;
2858;SDS011;1437;53.250;10.406;2023-03-11T07:46:49;16.80;;;11.37;;
2858;SDS011;1437;53.250;10.406;2023-03-11T07:49:25;14.47;;;10.47;;
2858;SDS011;1437;53.250;10.406;2023-03-11T07:51:57;16.77;;;11.63;;
2858;SDS011;1437;53.250;10.406;2023-03-11T07:54:34;11.00;;;6.47;;
2858;SDS011;1437;53.250;10.406;2023-03-11T07:57:09;17.90;;;11.17;;
2858;SDS011;1437;53.250;10.406;2023-03-11T07:59:46;8.37;;;5.97;;
2858;SDS011;1437;53.250;10.406;2023-03-11T08:02:24;13.97;;;9.50;;
2858;SDS011;1437;53.250;10.406;2023-03-11T08:05:00;16.80;;;9.33;;
2858;SDS011;1437;53.250;10.406;2023-03-11T08:07:29;10.40;;;6.23;;
2858;SDS011;1437;53.250;10.406;2023-03-11T08:09:59;10.70;;;6.20;;
2858;SDS011;1437;53.250;10.406;2023-03-11T08:12:31;15.83;;;9.70;;
2858;SDS011;1437;53.250;10.406;2023-03-11T08:15:00;15.00;;;9.47;;
2858;SDS011;1437;53.250;10.406;2023-03-11T08:17:36;8.70;;;5.63;;
2858;SDS011;1437;53.250;10.406;2023-03-11T08:20:11;11.43;;;8.70;;
2858;SDS011;1437;53.250;10.406;2023-03-11T08:22:39;10.77;;;7.17;;
2858;SDS011;1437;53.250;10.406;2023-03-11T08:25:08;11.30;;;7.90;;
2858;SDS011;1437;53.250;10.406;2023-03-11T08:27:37;10.70;;;6.07;;
2858;SDS011;1437;53.250;10.406;2023-03-11T08:30:09;8.23;;;6.13;;
2858;SDS011;1437;53.250;10.406;2023-03-11T08:32:41;10.20;;;6.70;;
2858;SDS011;1437;53.250;10.406;2023-03-11T08:35:13;11.30;;;7.43;;
2858;SDS011;1437;53.250;10.406;2023-03-11T08:37:43;10.67;;;6.97;;
2858;SDS011;1437;53.250;10.406;2023-03-11T08:40:24;6.10;;;4.40;;
2858;SDS011;1437;53.250;10.406;2023-03-11T08:42:54;17.70;;;6.10;;
2858;SDS011;1437;53.250;10.406;2023-03-11T08:45:29;10.10;;;4.30;;
2858;SDS011;1437;53.250;10.406;2023-03-11T08:47:58;7.33;;;5.27;;
2858;SDS011;1437;53.250;10.406;2023-03-11T08:50:34;9.10;;;6.33;;
2858;SDS011;1437;53.250;10.406;2023-03-11T08:53:06;11.33;;;6.50;;
2858;SDS011;1437;53.250;10.406;2023-03-11T08:55:35;7.17;;;5.50;;
2858;SDS011;1437;53.250;10.406;2023-03-11T08:58:03;7.00;;;5.07;;
2858;SDS011;1437;53.250;10.406;2023-03-11T09:01:09;9.53;;;6.10;;
2858;SDS011;1437;53.250;10.406;2023-03-11T09:03:25;9.23;;;5.83;;
2858;SDS011;1437;53.250;10.406;2023-03-11T09:06:02;7.50;;;5.80;;
2858;SDS011;1437;53.250;10.406;2023-03-11T09:08:33;12.23;;;7.30;;
2858;SDS011;1437;53.250;10.406;2023-03-11T09:11:11;9.80;;;6.40;;
2858;SDS011;1437;53.250;10.406;2023-03-11T09:13:55;10.47;;;7.40;;
2858;SDS011;1437;53.250;10.406;2023-03-11T09:16:23;9.40;;;6.10;;
2858;SDS011;1437;53.250;10.406;2023-03-11T09:18:52;11.37;;;7.27;;
2858;SDS011;1437;53.250;10.406;2023-03-11T09:21:42;14.10;;;7.83;;
2858;SDS011;1437;53.250;10.406;2023-03-11T09:24:16;10.97;;;6.40;;
2858;SDS011;1437;53.250;10.406;2023-03-11T09:26:44;7.03;;;5.30;;
2858;SDS011;1437;53.250;10.406;2023-03-11T09:29:16;10.70;;;5.87;;
2858;SDS011;1437;53.250;10.406;2023-03-11T09:31:45;7.13;;;5.07;;
2858;SDS011;1437;53.250;10.406;2023-03-11T09:34:13;9.00;;;4.80;;
2858;SDS011;1437;53.250;10.406;2023-03-11T09:36:42;8.23;;;6.10;;
2858;SDS011;1437;53.250;10.406;2023-03-11T09:39:17;8.37;;;5.33;;
2858;SDS011;1437;53.250;10.406;2023-03-11T09:41:52;10.03;;;5.37;;
2858;SDS011;1437;53.250;10.406;2023-03-11T09:44:27;6.43;;;4.10;;
2858;SDS011;1437;53.250;10.406;2023-03-11T09:47:16;7.30;;;4.17;;
2858;SDS011;1437;53.250;10.406;2023-03-11T09:49:56;10.53;;;4.70;;
2858;SDS011;1437;53.250;10.406;2023-03-11T09:52:34;5.23;;;3.60;;
2858;SDS011;1437;53.250;10.406;2023-03-11T09:55:08;6.47;;;3.20;;
2858;SDS011;1437;53.250;10.406;2023-03-11T09:57:39;6.43;;;3.27;;
2858;SDS011;1437;53.250;10.406;2023-03-11T10:00:09;6.90;;;4.07;;
2858;SDS011;1437;53.250;10.406;2023-03-11T10:02:45;7.00;;;4.23;;
2858;SDS011;1437;53.250;10.406;2023-03-11T10:05:25;9.00;;;4.20;;
2858;SDS011;1437;53.250;10.406;2023-03-11T10:10:44;4.20;;;2.40;;
2858;SDS011;1437;53.250;10.406;2023-03-11T10:13:29;10.70;;;2.83;;
2858;SDS011;1437;53.250;10.406;2023-03-11T10:16:09;7.60;;;3.30;;
2858;SDS011;1437;53.250;10.406;2023-03-11T10:18:45;4.93;;;2.40;;
2858;SDS011;1437;53.250;10.406;2023-03-11T10:21:19;7.87;;;3.03;;
2858;SDS011;1437;53.250;10.406;2023-03-11T10:23:58;9.07;;;4.17;;
2858;SDS011;1437;53.250;10.406;2023-03-11T10:26:32;8.43;;;3.80;;
2858;SDS011;1437;53.250;10.406;2023-03-11T10:29:02;5.00;;;3.07;;
2858;SDS011;1437;53.250;10.406;2023-03-11T10:31:41;4.33;;;2.20;;
2858;SDS011;1437;53.250;10.406;2023-03-11T10:34:12;5.50;;;2.67;;
2858;SDS011;1437;53.250;10.406;2023-03-11T10:36:49;5.57;;;2.80;;
2858;SDS011;1437;53.250;10.406;2023-03-11T10:39:25;6.40;;;3.30;;
2858;SDS011;1437;53.250;10.406;2023-03-11T10:42:02;6.80;;;3.37;;
2858;SDS011;1437;53.250;10.406;2023-03-11T10:44:31;5.60;;;3.00;;
2858;SDS011;1437;53.250;10.406;2023-03-11T10:47:05;5.00;;;2.40;;
2858;SDS011;1437;53.250;10.406;2023-03-11T10:49:44;7.50;;;2.90;;
2858;SDS011;1437;53.250;10.406;2023-03-11T10:53:02;4.85;;;2.22;;
2858;SDS011;1437;53.250;10.406;2023-03-11T10:55:43;3.57;;;2.70;;
2858;SDS011;1437;53.250;10.406;2023-03-11T10:58:13;3.80;;;2.67;;
2858;SDS011;1437;53.250;10.406;2023-03-11T11:03:31;5.10;;;2.93;;
2858;SDS011;1437;53.250;10.406;2023-03-11T11:06:01;7.37;;;3.00;;
2858;SDS011;1437;53.250;10.406;2023-03-11T11:08:32;4.87;;;2.90;;
2858;SDS011;1437;53.250;10.406;2023-03-11T11:11:09;5.17;;;2.83;;
2858;SDS011;1437;53.250;10.406;2023-03-11T11:13:55;6.37;;;2.87;;
2858;SDS011;1437;53.250;10.406;2023-03-11T11:16:26;4.70;;;2.37;;
2858;SDS011;1437;53.250;10.406;2023-03-11T11:18:59;7.03;;;2.50;;
2858;SDS011;1437;53.250;10.406;2023-03-11T11:21:35;7.83;;;3.37;;
2858;SDS011;1437;53.250;10.406;2023-03-11T11:24:19;3.80;;;2.20;;
2858;SDS011;1437;53.250;10.406;2023-03-11T11:29:34;5.60;;;2.50;;
2858;SDS011;1437;53.250;10.406;2023-03-11T11:34:58;5.30;;;1.60;;
2858;SDS011;1437;53.250;10.406;2023-03-11T11:37:42;4.93;;;1.70;;
2858;SDS011;1437;53.250;10.406;2023-03-11T11:40:33;7.70;;;3.30;;
2858;SDS011;1437;53.250;10.406;2023-03-11T11:43:10;2.77;;;1.60;;
2858;SDS011;1437;53.250;10.406;2023-03-11T11:45:39;5.73;;;2.10;;
2858;SDS011;1437;53.250;10.406;2023-03-11T11:48:11;4.63;;;2.37;;
2858;SDS011;1437;53.250;10.406;2023-03-11T11:50:43;3.50;;;1.70;;
2858;SDS011;1437;53.250;10.406;2023-03-11T11:53:27;6.93;;;1.90;;
2858;SDS011;1437;53.250;10.406;2023-03-11T11:55:57;4.50;;;1.77;;
2858;SDS011;1437;53.250;10.406;2023-03-11T11:58:27;3.90;;;1.77;;
2858;SDS011;1437;53.250;10.406;2023-03-11T12:01:12;3.90;;;2.30;;
2858;SDS011;1437;53.250;10.406;2023-03-11T12:06:38;8.97;;;2.47;;
2858;SDS011;1437;53.250;10.406;2023-03-11T12:09:13;3.83;;;1.40;;
2858;SDS011;1437;53.250;10.406;2023-03-11T12:12:00;6.13;;;1.50;;
2858;SDS011;1437;53.250;10.406;2023-03-11T12:14:35;4.50;;;2.03;;
2858;SDS011;1437;53.250;10.406;2023-03-11T12:17:07;4.40;;;2.30;;
2858;SDS011;1437;53.250;10.406;2023-03-11T12:19:45;7.63;;;2.00;;
2858;SDS011;1437;53.250;10.406;2023-03-11T12:22:26;5.83;;;2.60;;
2858;SDS011;1437;53.250;10.406;2023-03-11T12:25:04;4.10;;;1.93;;
2858;SDS011;1437;53.250;10.406;2023-03-11T12:27:45;3.40;;;1.77;;
2858;SDS011;1437;53.250;10.406;2023-03-11T12:30:15;3.50;;;1.43;;
2858;SDS011;1437;53.250;10.406;2023-03-11T12:32:46;3.17;;;1.70;;
2858;SDS011;1437;53.250;10.406;2023-03-11T12:35:22;2.87;;;1.33;;
2858;SDS011;1437;53.250;10.406;2023-03-11T12:37:58;3.17;;;1.67;;
2858;SDS011;1437;53.250;10.406;2023-03-11T12:43:55;4.77;;;2.17;;
2858;SDS011;1437;53.250;10.406;2023-03-11T12:49:16;7.30;;;1.57;;
2858;SDS011;1437;53.250;10.406;2023-03-11T12:52:04;3.77;;;1.50;;
2858;SDS011;1437;53.250;10.406;2023-03-11T12:54:33;5.03;;;1.50;;
2858;SDS011;1437;53.250;10.406;2023-03-11T12:57:08;6.80;;;1.67;;
2858;SDS011;1437;53.250;10.406;2023-03-11T13:02:42;9.10;;;5.53;;
2858;SDS011;1437;53.250;10.406;2023-03-11T13:05:20;6.67;;;1.37;;
2858;SDS011;1437;53.250;10.406;2023-03-11T13:07:52;4.10;;;1.43;;
2858;SDS011;1437;53.250;10.406;2023-03-11T13:10:36;5.67;;;2.83;;
2858;SDS011;1437;53.250;10.406;2023-03-11T13:21:52;2.43;;;1.27;;
2858;SDS011;1437;53.250;10.406;2023-03-11T13:27:32;6.10;;;1.93;;
2858;SDS011;1437;53.250;10.406;2023-03-11T13:30:17;7.40;;;2.03;;
2858;SDS011;1437;53.250;10.406;2023-03-11T13:35:55;3.90;;;1.53;;
2858;SDS011;1437;53.250;10.406;2023-03-11T13:41:34;3.13;;;1.40;;
2858;SDS011;1437;53.250;10.406;2023-03-11T13:44:10;7.07;;;1.40;;
2858;SDS011;1437;53.250;10.406;2023-03-11T13:47:03;6.73;;;1.13;;
2858;SDS011;1437;53.250;10.406;2023-03-11T13:49:41;4.40;;;2.53;;
2858;SDS011;1437;53.250;10.406;2023-03-11T13:52:13;3.30;;;1.93;;
2858;SDS011;1437;53.250;10.406;2023-03-11T13:54:46;2.73;;;1.57;;
2858;SDS011;1437;53.250;10.406;2023-03-11T13:57:28;3.00;;;1.27;;
2858;SDS011;1437;53.250;10.406;2023-03-11T14:00:02;3.10;;;1.33;;
2858;SDS011;1437;53.250;10.406;2023-03-11T14:02:41;6.40;;;2.33;;
2858;SDS011;1437;53.250;10.406;2023-03-11T14:05:15;3.37;;;1.20;;
2858;SDS011;1437;53.250;10.406;2023-03-11T14:07:51;6.87;;;1.60;;
2858;SDS011;1437;53.250;10.406;2023-03-11T14:10:26;5.03;;;1.20;;
2858;SDS011;1437;53.250;10.406;2023-03-11T14:13:14;4.07;;;1.37;;
2858;SDS011;1437;53.250;10.406;2023-03-11T14:15:56;7.20;;;1.67;;
2858;SDS011;1437;53.250;10.406;2023-03-11T14:18:41;6.80;;;2.07;;
2858;SDS011;1437;53.250;10.406;2023-03-11T14:21:21;3.73;;;1.27;;
2858;SDS011;1437;53.250;10.406;2023-03-11T14:24:15;2.93;;;1.47;;
2858;SDS011;1437;53.250;10.406;2023-03-11T14:26:54;6.30;;;1.90;;
2858;SDS011;1437;53.250;10.406;2023-03-11T14:29:35;3.70;;;2.17;;
2858;SDS011;1437;53.250;10.406;2023-03-11T14:35:00;7.70;;;2.80;;
2858;SDS011;1437;53.250;10.406;2023-03-11T14:37:35;2.43;;;1.37;;
2858;SDS011;1437;53.250;10.406;2023-03-11T14:40:23;5.10;;;1.57;;
2858;SDS011;1437;53.250;10.406;2023-03-11T14:42:52;5.47;;;2.13;;
2858;SDS011;1437;53.250;10.406;2023-03-11T14:45:23;1.90;;;1.10;;
2858;SDS011;1437;53.250;10.406;2023-03-11T14:47:57;3.90;;;1.07;;
2858;SDS011;1437;53.250;10.406;2023-03-11T14:50:42;7.27;;;1.67;;
2858;SDS011;1437;53.250;10.406;2023-03-11T14:53:26;2.40;;;1.10;;
2858;SDS011;1437;53.250;10.406;2023-03-11T14:56:11;19.40;;;1.60;;
2858;SDS011;1437;53.250;10.406;2023-03-11T14:58:43;4.10;;;1.27;;
2858;SDS011;1437;53.250;10.406;2023-03-11T15:01:16;3.83;;;0.87;;
2858;SDS011;1437;53.250;10.406;2023-03-11T15:03:50;1.50;;;0.70;;
2858;SDS011;1437;53.250;10.406;2023-03-11T15:06:31;3.10;;;1.03;;
2858;SDS011;1437;53.250;10.406;2023-03-11T15:09:09;2.13;;;0.97;;
2858;SDS011;1437;53.250;10.406;2023-03-11T15:11:57;1.30;;;0.60;;
2858;SDS011;1437;53.250;10.406;2023-03-11T15:14:35;4.80;;;1.33;;
2858;SDS011;1437;53.250;10.406;2023-03-11T15:17:13;2.33;;;0.93;;
2858;SDS011;1437;53.250;10.406;2023-03-11T15:19:47;3.67;;;1.00;;
2858;SDS011;1437;53.250;10.406;2023-03-11T15:22:23;5.63;;;1.00;;
2858;SDS011;1437;53.250;10.406;2023-03-11T15:24:52;3.97;;;1.20;;
2858;SDS011;1437;53.250;10.406;2023-03-11T15:27:28;4.23;;;1.50;;
2858;SDS011;1437;53.250;10.406;2023-03-11T15:30:01;2.67;;;1.00;;
2858;SDS011;1437;53.250;10.406;2023-03-11T15:32:38;4.93;;;1.10;;
2858;SDS011;1437;53.250;10.406;2023-03-11T15:35:14;2.10;;;0.80;;
2858;SDS011;1437;53.250;10.406;2023-03-11T15:37:44;3.80;;;0.87;;
2858;SDS011;1437;53.250;10.406;2023-03-11T15:43:40;2.10;;;0.90;;
2858;SDS011;1437;53.250;10.406;2023-03-11T15:46:33;3.70;;;1.10;;
2858;SDS011;1437;53.250;10.406;2023-03-11T15:49:19;3.00;;;1.10;;
2858;SDS011;1437;53.250;10.406;2023-03-11T15:51:48;2.40;;;0.80;;
2858;SDS011;1437;53.250;10.406;2023-03-11T15:54:24;2.60;;;1.50;;
2858;SDS011;1437;53.250;10.406;2023-03-11T15:57:19;4.70;;;1.00;;
2858;SDS011;1437;53.250;10.406;2023-03-11T16:00:13;4.23;;;2.17;;
2858;SDS011;1437;53.250;10.406;2023-03-11T16:05:49;7.70;;;1.83;;
2858;SDS011;1437;53.250;10.406;2023-03-11T16:08:36;2.63;;;1.30;;
2858;SDS011;1437;53.250;10.406;2023-03-11T16:11:14;3.27;;;1.07;;
2858;SDS011;1437;53.250;10.406;2023-03-11T16:13:50;3.13;;;1.13;;